sensor_id;sensor_type;location;lat;lon;timestamp;P1;durP1;ratioP1;P2;durP2;ratioP2
26036;SDS011;13810;48.376;10.944;2022-08-19T00:00:15;4.55;;;3.33;;
26036;SDS011;13810;48.376;10.944;2022-08-19T00:00:46;5.40;;;3.63;;
26036;SDS011;13810;48.376;10.944;2022-08-19T00:01:17;8.70;;;4.05;;
26036;SDS011;13810;48.376;10.944;2022-08-19T00:01:49;4.72;;;3.60;;
26036;SDS011;13810;48.376;10.944;2022-08-19T00:02:21;4.72;;;2.95;;
26036;SDS011;13810;48.376;10.944;2022-08-19T00:02:52;3.50;;;3.15;;
26036;SDS011;13810;48.376;10.944;2022-08-19T00:03:23;4.95;;;3.65;;
26036;SDS011;13810;48.376;10.944;2022-08-19T00:03:56;6.05;;;3.28;;
26036;SDS011;13810;48.376;10.944;2022-08-19T00:04:29;4.93;;;3.80;;
26036;SDS011;13810;48.376;10.944;2022-08-19T00:05:03;4.63;;;3.42;;
26036;SDS011;13810;48.376;10.944;2022-08-19T00:05:34;4.28;;;3.22;;
26036;SDS011;13810;48.376;10.944;2022-08-19T00:06:04;3.95;;;3.35;;
26036;SDS011;13810;48.376;10.944;2022-08-19T00:06:36;4.45;;;3.63;;
26036;SDS011;13810;48.376;10.944;2022-08-19T00:07:07;4.13;;;3.55;;
26036;SDS011;13810;48.376;10.944;2022-08-19T00:07:39;4.00;;;3.05;;
26036;SDS011;13810;48.376;10.944;2022-08-19T00:08:11;5.85;;;3.95;;
26036;SDS011;13810;48.376;10.944;2022-08-19T00:08:41;4.55;;;3.75;;
26036;SDS011;13810;48.376;10.944;2022-08-19T00:09:14;4.80;;;3.88;;
26036;SDS011;13810;48.376;10.944;2022-08-19T00:09:45;5.00;;;3.38;;
26036;SDS011;13810;48.376;10.944;2022-08-19T00:10:17;4.47;;;3.63;;
26036;SDS011;13810;48.376;10.944;2022-08-19T00:10:48;3.63;;;2.85;;
26036;SDS011;13810;48.376;10.944;2022-08-19T00:11:18;3.60;;;3.30;;
26036;SDS011;13810;48.376;10.944;2022-08-19T00:11:50;3.63;;;3.15;;
26036;SDS011;13810;48.376;10.944;2022-08-19T00:12:22;3.70;;;3.13;;
26036;SDS011;13810;48.376;10.944;2022-08-19T00:12:52;6.78;;;3.83;;
26036;SDS011;13810;48.376;10.944;2022-08-19T00:13:23;4.05;;;3.10;;
26036;SDS011;13810;48.376;10.944;2022-08-19T00:13:54;4.22;;;3.58;;
26036;SDS011;13810;48.376;10.944;2022-08-19T00:14:27;4.00;;;3.35;;
26036;SDS011;13810;48.376;10.944;2022-08-19T00:15:01;3.83;;;3.20;;
26036;SDS011;13810;48.376;10.944;2022-08-19T00:15:32;3.78;;;3.30;;
26036;SDS011;13810;48.376;10.944;2022-08-19T00:16:04;3.83;;;3.42;;
26036;SDS011;13810;48.376;10.944;2022-08-19T00:16:37;4.35;;;3.38;;
26036;SDS011;13810;48.376;10.944;2022-08-19T00:17:09;5.18;;;3.53;;
26036;SDS011;13810;48.376;10.944;2022-08-19T00:17:41;4.30;;;3.40;;
26036;SDS011;13810;48.376;10.944;2022-08-19T00:18:12;3.20;;;2.90;;
26036;SDS011;13810;48.376;10.944;2022-08-19T00:18:43;3.42;;;2.88;;
26036;SDS011;13810;48.376;10.944;2022-08-19T00:19:14;3.75;;;3.35;;
26036;SDS011;13810;48.376;10.944;2022-08-19T00:19:46;4.50;;;3.53;;
26036;SDS011;13810;48.376;10.944;2022-08-19T00:20:18;6.03;;;3.72;;
26036;SDS011;13810;48.376;10.944;2022-08-19T00:20:50;4.45;;;3.17;;
26036;SDS011;13810;48.376;10.944;2022-08-19T00:21:21;3.22;;;2.92;;
26036;SDS011;13810;48.376;10.944;2022-08-19T00:21:56;4.15;;;3.42;;
26036;SDS011;13810;48.376;10.944;2022-08-19T00:22:27;6.15;;;3.00;;
26036;SDS011;13810;48.376;10.944;2022-08-19T00:22:58;3.50;;;3.08;;
26036;SDS011;13810;48.376;10.944;2022-08-19T00:23:35;3.65;;;3.08;;
26036;SDS011;13810;48.376;10.944;2022-08-19T00:24:06;3.50;;;3.20;;
26036;SDS011;13810;48.376;10.944;2022-08-19T00:24:38;3.40;;;2.90;;
26036;SDS011;13810;48.376;10.944;2022-08-19T00:25:11;3.78;;;3.25;;
26036;SDS011;13810;48.376;10.944;2022-08-19T00:25:42;5.22;;;3.80;;
26036;SDS011;13810;48.376;10.944;2022-08-19T00:26:13;3.78;;;2.97;;
26036;SDS011;13810;48.376;10.944;2022-08-19T00:26:44;3.38;;;2.70;;
26036;SDS011;13810;48.376;10.944;2022-08-19T00:27:15;3.30;;;2.90;;
26036;SDS011;13810;48.376;10.944;2022-08-19T00:27:46;3.58;;;2.95;;
26036;SDS011;13810;48.376;10.944;2022-08-19T00:28:18;4.10;;;3.15;;
26036;SDS011;13810;48.376;10.944;2022-08-19T00:28:48;3.78;;;3.15;;
26036;SDS011;13810;48.376;10.944;2022-08-19T00:29:20;4.25;;;2.85;;
26036;SDS011;13810;48.376;10.944;2022-08-19T00:29:51;4.22;;;3.25;;
26036;SDS011;13810;48.376;10.944;2022-08-19T00:30:22;4.80;;;3.45;;
26036;SDS011;13810;48.376;10.944;2022-08-19T00:30:52;3.25;;;2.95;;
26036;SDS011;13810;48.376;10.944;2022-08-19T00:31:23;3.03;;;2.80;;
26036;SDS011;13810;48.376;10.944;2022-08-19T00:31:55;4.47;;;3.22;;
26036;SDS011;13810;48.376;10.944;2022-08-19T00:32:28;3.50;;;2.85;;
26036;SDS011;13810;48.376;10.944;2022-08-19T00:32:59;2.80;;;2.60;;
26036;SDS011;13810;48.376;10.944;2022-08-19T00:33:30;3.28;;;2.92;;
26036;SDS011;13810;48.376;10.944;2022-08-19T00:34:04;4.88;;;2.75;;
26036;SDS011;13810;48.376;10.944;2022-08-19T00:34:35;3.58;;;2.85;;
26036;SDS011;13810;48.376;10.944;2022-08-19T00:35:05;3.38;;;2.83;;
26036;SDS011;13810;48.376;10.944;2022-08-19T00:35:37;4.90;;;2.97;;
26036;SDS011;13810;48.376;10.944;2022-08-19T00:36:09;3.25;;;2.83;;
26036;SDS011;13810;48.376;10.944;2022-08-19T00:36:40;3.63;;;3.00;;
26036;SDS011;13810;48.376;10.944;2022-08-19T00:37:12;3.45;;;2.78;;
26036;SDS011;13810;48.376;10.944;2022-08-19T00:37:43;2.90;;;2.60;;
26036;SDS011;13810;48.376;10.944;2022-08-19T00:38:14;3.28;;;2.67;;
26036;SDS011;13810;48.376;10.944;2022-08-19T00:38:45;3.50;;;2.67;;
26036;SDS011;13810;48.376;10.944;2022-08-19T00:39:16;3.28;;;2.95;;
26036;SDS011;13810;48.376;10.944;2022-08-19T00:39:47;3.65;;;2.97;;
26036;SDS011;13810;48.376;10.944;2022-08-19T00:40:17;3.30;;;2.85;;
26036;SDS011;13810;48.376;10.944;2022-08-19T00:40:49;2.97;;;2.67;;
26036;SDS011;13810;48.376;10.944;2022-08-19T00:41:20;3.35;;;2.70;;
26036;SDS011;13810;48.376;10.944;2022-08-19T00:41:53;7.05;;;2.65;;
26036;SDS011;13810;48.376;10.944;2022-08-19T00:42:24;2.60;;;2.40;;
26036;SDS011;13810;48.376;10.944;2022-08-19T00:42:58;2.95;;;2.55;;
26036;SDS011;13810;48.376;10.944;2022-08-19T00:43:29;2.97;;;2.50;;
26036;SDS011;13810;48.376;10.944;2022-08-19T00:44:05;2.70;;;2.40;;
26036;SDS011;13810;48.376;10.944;2022-08-19T00:44:38;1.88;;;1.75;;
26036;SDS011;13810;48.376;10.944;2022-08-19T00:45:14;2.15;;;1.95;;
26036;SDS011;13810;48.376;10.944;2022-08-19T00:45:47;2.72;;;2.17;;
26036;SDS011;13810;48.376;10.944;2022-08-19T00:46:17;3.40;;;2.42;;
26036;SDS011;13810;48.376;10.944;2022-08-19T00:46:50;2.20;;;2.00;;
26036;SDS011;13810;48.376;10.944;2022-08-19T00:47:22;3.97;;;2.25;;
26036;SDS011;13810;48.376;10.944;2022-08-19T00:47:53;2.22;;;1.90;;
26036;SDS011;13810;48.376;10.944;2022-08-19T00:48:23;2.30;;;1.90;;
26036;SDS011;13810;48.376;10.944;2022-08-19T00:48:54;2.35;;;2.15;;
26036;SDS011;13810;48.376;10.944;2022-08-19T00:49:32;2.38;;;2.17;;
26036;SDS011;13810;48.376;10.944;2022-08-19T00:50:21;2.08;;;1.73;;
26036;SDS011;13810;48.376;10.944;2022-08-19T00:50:52;2.75;;;2.25;;
26036;SDS011;13810;48.376;10.944;2022-08-19T00:51:25;2.05;;;1.83;;
26036;SDS011;13810;48.376;10.944;2022-08-19T00:52:02;4.50;;;2.58;;
26036;SDS011;13810;48.376;10.944;2022-08-19T00:52:39;2.28;;;2.08;;
26036;SDS011;13810;48.376;10.944;2022-08-19T00:53:15;3.72;;;2.22;;
26036;SDS011;13810;48.376;10.944;2022-08-19T00:53:49;4.22;;;2.40;;
26036;SDS011;13810;48.376;10.944;2022-08-19T00:54:19;2.47;;;2.00;;
26036;SDS011;13810;48.376;10.944;2022-08-19T00:54:51;3.47;;;2.42;;
26036;SDS011;13810;48.376;10.944;2022-08-19T00:55:24;2.90;;;2.38;;
26036;SDS011;13810;48.376;10.944;2022-08-19T00:55:58;3.38;;;2.20;;
26036;SDS011;13810;48.376;10.944;2022-08-19T00:56:31;2.50;;;2.03;;
26036;SDS011;13810;48.376;10.944;2022-08-19T00:57:03;2.78;;;2.13;;
26036;SDS011;13810;48.376;10.944;2022-08-19T00:57:37;3.92;;;2.30;;
26036;SDS011;13810;48.376;10.944;2022-08-19T00:58:12;3.17;;;2.35;;
26036;SDS011;13810;48.376;10.944;2022-08-19T00:58:45;3.95;;;2.58;;
26036;SDS011;13810;48.376;10.944;2022-08-19T00:59:16;2.70;;;2.05;;
26036;SDS011;13810;48.376;10.944;2022-08-19T00:59:50;3.67;;;2.50;;
26036;SDS011;13810;48.376;10.944;2022-08-19T01:00:24;3.78;;;2.53;;
26036;SDS011;13810;48.376;10.944;2022-08-19T01:00:57;4.72;;;2.45;;
26036;SDS011;13810;48.376;10.944;2022-08-19T01:01:28;3.83;;;2.42;;
26036;SDS011;13810;48.376;10.944;2022-08-19T01:01:58;4.47;;;2.40;;
26036;SDS011;13810;48.376;10.944;2022-08-19T01:02:30;3.33;;;2.65;;
26036;SDS011;13810;48.376;10.944;2022-08-19T01:03:05;4.47;;;2.80;;
26036;SDS011;13810;48.376;10.944;2022-08-19T01:03:39;4.28;;;2.95;;
26036;SDS011;13810;48.376;10.944;2022-08-19T01:04:10;3.15;;;2.83;;
26036;SDS011;13810;48.376;10.944;2022-08-19T01:04:41;5.85;;;2.53;;
26036;SDS011;13810;48.376;10.944;2022-08-19T01:05:13;3.65;;;3.20;;
26036;SDS011;13810;48.376;10.944;2022-08-19T01:05:48;3.33;;;2.35;;
26036;SDS011;13810;48.376;10.944;2022-08-19T01:06:20;4.90;;;2.67;;
26036;SDS011;13810;48.376;10.944;2022-08-19T01:06:51;2.92;;;2.50;;
26036;SDS011;13810;48.376;10.944;2022-08-19T01:07:22;4.85;;;2.40;;
26036;SDS011;13810;48.376;10.944;2022-08-19T01:07:53;3.53;;;2.72;;
26036;SDS011;13810;48.376;10.944;2022-08-19T01:08:25;6.28;;;2.72;;
26036;SDS011;13810;48.376;10.944;2022-08-19T01:08:55;4.07;;;2.75;;
26036;SDS011;13810;48.376;10.944;2022-08-19T01:09:26;3.13;;;2.78;;
26036;SDS011;13810;48.376;10.944;2022-08-19T01:09:57;5.05;;;2.65;;
26036;SDS011;13810;48.376;10.944;2022-08-19T01:10:29;3.20;;;2.90;;
26036;SDS011;13810;48.376;10.944;2022-08-19T01:11:02;4.13;;;3.10;;
26036;SDS011;13810;48.376;10.944;2022-08-19T01:11:34;3.38;;;2.80;;
26036;SDS011;13810;48.376;10.944;2022-08-19T01:12:08;5.25;;;2.75;;
26036;SDS011;13810;48.376;10.944;2022-08-19T01:12:39;4.00;;;2.42;;
26036;SDS011;13810;48.376;10.944;2022-08-19T01:13:10;3.80;;;2.97;;
26036;SDS011;13810;48.376;10.944;2022-08-19T01:13:43;3.20;;;2.63;;
26036;SDS011;13810;48.376;10.944;2022-08-19T01:14:15;3.97;;;2.45;;
26036;SDS011;13810;48.376;10.944;2022-08-19T01:14:46;4.57;;;2.47;;
26036;SDS011;13810;48.376;10.944;2022-08-19T01:15:19;2.97;;;2.40;;
26036;SDS011;13810;48.376;10.944;2022-08-19T01:15:55;6.18;;;2.75;;
26036;SDS011;13810;48.376;10.944;2022-08-19T01:16:30;2.85;;;2.53;;
26036;SDS011;13810;48.376;10.944;2022-08-19T01:17:02;3.78;;;2.50;;
26036;SDS011;13810;48.376;10.944;2022-08-19T01:17:33;4.05;;;2.78;;
26036;SDS011;13810;48.376;10.944;2022-08-19T01:18:08;5.05;;;2.80;;
26036;SDS011;13810;48.376;10.944;2022-08-19T01:18:41;4.90;;;2.92;;
26036;SDS011;13810;48.376;10.944;2022-08-19T01:19:16;5.07;;;2.55;;
26036;SDS011;13810;48.376;10.944;2022-08-19T01:19:54;4.07;;;2.70;;
26036;SDS011;13810;48.376;10.944;2022-08-19T01:20:25;3.70;;;2.90;;
26036;SDS011;13810;48.376;10.944;2022-08-19T01:20:58;6.25;;;3.08;;
26036;SDS011;13810;48.376;10.944;2022-08-19T01:21:40;3.22;;;2.88;;
26036;SDS011;13810;48.376;10.944;2022-08-19T01:22:54;3.20;;;2.63;;
26036;SDS011;13810;48.376;10.944;2022-08-19T01:23:26;4.30;;;3.25;;
26036;SDS011;13810;48.376;10.944;2022-08-19T01:24:12;4.22;;;3.00;;
26036;SDS011;13810;48.376;10.944;2022-08-19T01:24:43;3.80;;;2.97;;
26036;SDS011;13810;48.376;10.944;2022-08-19T01:25:15;4.00;;;3.38;;
26036;SDS011;13810;48.376;10.944;2022-08-19T01:25:51;6.05;;;3.28;;
26036;SDS011;13810;48.376;10.944;2022-08-19T01:26:24;4.50;;;2.90;;
26036;SDS011;13810;48.376;10.944;2022-08-19T01:26:55;5.72;;;3.33;;
26036;SDS011;13810;48.376;10.944;2022-08-19T01:27:26;3.78;;;2.97;;
26036;SDS011;13810;48.376;10.944;2022-08-19T01:27:57;4.97;;;3.28;;
26036;SDS011;13810;48.376;10.944;2022-08-19T01:28:28;5.03;;;3.42;;
26036;SDS011;13810;48.376;10.944;2022-08-19T01:28:59;6.97;;;3.10;;
26036;SDS011;13810;48.376;10.944;2022-08-19T01:29:31;4.43;;;3.53;;
26036;SDS011;13810;48.376;10.944;2022-08-19T01:30:02;4.88;;;3.38;;
26036;SDS011;13810;48.376;10.944;2022-08-19T01:30:34;3.55;;;2.80;;
26036;SDS011;13810;48.376;10.944;2022-08-19T01:31:06;4.20;;;3.55;;
26036;SDS011;13810;48.376;10.944;2022-08-19T01:31:41;5.53;;;3.28;;
26036;SDS011;13810;48.376;10.944;2022-08-19T01:32:12;3.97;;;2.90;;
26036;SDS011;13810;48.376;10.944;2022-08-19T01:32:45;5.78;;;3.10;;
26036;SDS011;13810;48.376;10.944;2022-08-19T01:33:16;4.40;;;3.15;;
26036;SDS011;13810;48.376;10.944;2022-08-19T01:33:48;7.03;;;3.78;;
26036;SDS011;13810;48.376;10.944;2022-08-19T01:34:19;4.72;;;3.42;;
26036;SDS011;13810;48.376;10.944;2022-08-19T01:34:50;4.13;;;3.40;;
26036;SDS011;13810;48.376;10.944;2022-08-19T01:35:21;5.07;;;3.55;;
26036;SDS011;13810;48.376;10.944;2022-08-19T01:36:02;8.65;;;3.60;;
26036;SDS011;13810;48.376;10.944;2022-08-19T01:36:44;4.35;;;3.38;;
26036;SDS011;13810;48.376;10.944;2022-08-19T01:37:17;3.97;;;3.17;;
26036;SDS011;13810;48.376;10.944;2022-08-19T01:37:56;4.38;;;3.10;;
26036;SDS011;13810;48.376;10.944;2022-08-19T01:38:28;4.93;;;3.58;;
26036;SDS011;13810;48.376;10.944;2022-08-19T01:39:03;4.07;;;2.97;;
26036;SDS011;13810;48.376;10.944;2022-08-19T01:39:39;4.25;;;3.20;;
26036;SDS011;13810;48.376;10.944;2022-08-19T01:40:11;4.03;;;3.17;;
26036;SDS011;13810;48.376;10.944;2022-08-19T01:40:42;4.93;;;3.35;;
26036;SDS011;13810;48.376;10.944;2022-08-19T01:41:12;9.50;;;3.60;;
26036;SDS011;13810;48.376;10.944;2022-08-19T01:41:43;5.10;;;3.95;;
26036;SDS011;13810;48.376;10.944;2022-08-19T01:42:14;4.57;;;3.25;;
26036;SDS011;13810;48.376;10.944;2022-08-19T01:42:44;6.07;;;3.53;;
26036;SDS011;13810;48.376;10.944;2022-08-19T01:43:15;6.40;;;3.85;;
26036;SDS011;13810;48.376;10.944;2022-08-19T01:43:45;4.68;;;3.65;;
26036;SDS011;13810;48.376;10.944;2022-08-19T01:44:16;4.18;;;3.40;;
26036;SDS011;13810;48.376;10.944;2022-08-19T01:44:50;5.13;;;3.35;;
26036;SDS011;13810;48.376;10.944;2022-08-19T01:45:21;6.07;;;3.92;;
26036;SDS011;13810;48.376;10.944;2022-08-19T01:45:54;3.92;;;3.40;;
26036;SDS011;13810;48.376;10.944;2022-08-19T01:46:25;5.55;;;3.63;;
26036;SDS011;13810;48.376;10.944;2022-08-19T01:46:55;5.68;;;3.97;;
26036;SDS011;13810;48.376;10.944;2022-08-19T01:47:26;4.30;;;3.38;;
26036;SDS011;13810;48.376;10.944;2022-08-19T01:47:57;5.70;;;4.00;;
26036;SDS011;13810;48.376;10.944;2022-08-19T01:48:32;8.55;;;3.78;;
26036;SDS011;13810;48.376;10.944;2022-08-19T01:49:05;5.75;;;3.97;;
26036;SDS011;13810;48.376;10.944;2022-08-19T01:49:37;5.72;;;3.97;;
26036;SDS011;13810;48.376;10.944;2022-08-19T01:50:09;4.72;;;3.70;;
26036;SDS011;13810;48.376;10.944;2022-08-19T01:50:40;6.05;;;4.13;;
26036;SDS011;13810;48.376;10.944;2022-08-19T01:51:11;6.18;;;4.45;;
26036;SDS011;13810;48.376;10.944;2022-08-19T01:51:43;5.25;;;4.25;;
26036;SDS011;13810;48.376;10.944;2022-08-19T01:52:13;5.68;;;4.00;;
26036;SDS011;13810;48.376;10.944;2022-08-19T01:52:44;6.13;;;4.20;;
26036;SDS011;13810;48.376;10.944;2022-08-19T01:53:15;6.50;;;4.53;;
26036;SDS011;13810;48.376;10.944;2022-08-19T01:53:49;7.13;;;4.85;;
26036;SDS011;13810;48.376;10.944;2022-08-19T01:54:21;7.70;;;4.35;;
26036;SDS011;13810;48.376;10.944;2022-08-19T01:54:53;7.15;;;4.78;;
26036;SDS011;13810;48.376;10.944;2022-08-19T01:55:24;7.40;;;4.93;;
26036;SDS011;13810;48.376;10.944;2022-08-19T01:55:55;6.22;;;5.00;;
26036;SDS011;13810;48.376;10.944;2022-08-19T01:56:26;5.57;;;4.10;;
26036;SDS011;13810;48.376;10.944;2022-08-19T01:56:58;6.10;;;4.78;;
26036;SDS011;13810;48.376;10.944;2022-08-19T01:57:37;5.18;;;4.43;;
26036;SDS011;13810;48.376;10.944;2022-08-19T01:58:13;9.30;;;5.13;;
26036;SDS011;13810;48.376;10.944;2022-08-19T01:58:50;10.73;;;4.90;;
26036;SDS011;13810;48.376;10.944;2022-08-19T01:59:25;6.38;;;4.95;;
26036;SDS011;13810;48.376;10.944;2022-08-19T01:59:56;5.68;;;4.15;;
26036;SDS011;13810;48.376;10.944;2022-08-19T02:00:28;6.53;;;4.97;;
26036;SDS011;13810;48.376;10.944;2022-08-19T02:01:01;7.25;;;5.30;;
26036;SDS011;13810;48.376;10.944;2022-08-19T02:01:32;6.63;;;4.95;;
26036;SDS011;13810;48.376;10.944;2022-08-19T02:02:04;7.53;;;5.20;;
26036;SDS011;13810;48.376;10.944;2022-08-19T02:02:39;7.75;;;6.03;;
26036;SDS011;13810;48.376;10.944;2022-08-19T02:03:09;8.75;;;5.28;;
26036;SDS011;13810;48.376;10.944;2022-08-19T02:03:41;7.60;;;5.55;;
26036;SDS011;13810;48.376;10.944;2022-08-19T02:04:11;8.00;;;6.15;;
26036;SDS011;13810;48.376;10.944;2022-08-19T02:04:42;9.52;;;6.18;;
26036;SDS011;13810;48.376;10.944;2022-08-19T02:05:13;8.25;;;6.18;;
26036;SDS011;13810;48.376;10.944;2022-08-19T02:05:44;8.20;;;5.97;;
26036;SDS011;13810;48.376;10.944;2022-08-19T02:06:15;9.23;;;6.70;;
26036;SDS011;13810;48.376;10.944;2022-08-19T02:06:46;8.27;;;5.65;;
26036;SDS011;13810;48.376;10.944;2022-08-19T02:07:20;13.40;;;6.45;;
26036;SDS011;13810;48.376;10.944;2022-08-19T02:07:51;9.65;;;6.50;;
26036;SDS011;13810;48.376;10.944;2022-08-19T02:08:22;8.85;;;6.63;;
26036;SDS011;13810;48.376;10.944;2022-08-19T02:08:53;8.85;;;6.50;;
26036;SDS011;13810;48.376;10.944;2022-08-19T02:09:23;9.98;;;6.90;;
26036;SDS011;13810;48.376;10.944;2022-08-19T02:09:54;8.77;;;6.40;;
26036;SDS011;13810;48.376;10.944;2022-08-19T02:10:25;13.02;;;6.88;;
26036;SDS011;13810;48.376;10.944;2022-08-19T02:10:56;9.70;;;6.57;;
26036;SDS011;13810;48.376;10.944;2022-08-19T02:11:28;9.27;;;6.75;;
26036;SDS011;13810;48.376;10.944;2022-08-19T02:12:03;8.77;;;6.43;;
26036;SDS011;13810;48.376;10.944;2022-08-19T02:12:35;9.10;;;6.45;;
26036;SDS011;13810;48.376;10.944;2022-08-19T02:13:06;9.57;;;6.57;;
26036;SDS011;13810;48.376;10.944;2022-08-19T02:13:37;11.02;;;7.18;;
26036;SDS011;13810;48.376;10.944;2022-08-19T02:14:07;9.60;;;7.13;;
26036;SDS011;13810;48.376;10.944;2022-08-19T02:14:38;10.43;;;7.25;;
26036;SDS011;13810;48.376;10.944;2022-08-19T02:15:09;9.90;;;7.78;;
26036;SDS011;13810;48.376;10.944;2022-08-19T02:15:40;11.93;;;7.85;;
26036;SDS011;13810;48.376;10.944;2022-08-19T02:16:11;10.20;;;7.28;;
26036;SDS011;13810;48.376;10.944;2022-08-19T02:16:42;10.10;;;6.95;;
26036;SDS011;13810;48.376;10.944;2022-08-19T02:17:13;8.38;;;6.30;;
26036;SDS011;13810;48.376;10.944;2022-08-19T02:17:44;11.27;;;7.50;;
26036;SDS011;13810;48.376;10.944;2022-08-19T02:18:15;11.38;;;7.18;;
26036;SDS011;13810;48.376;10.944;2022-08-19T02:18:46;10.48;;;7.95;;
26036;SDS011;13810;48.376;10.944;2022-08-19T02:19:18;10.15;;;7.82;;
26036;SDS011;13810;48.376;10.944;2022-08-19T02:19:49;10.75;;;7.35;;
26036;SDS011;13810;48.376;10.944;2022-08-19T02:20:20;12.88;;;8.20;;
26036;SDS011;13810;48.376;10.944;2022-08-19T02:20:50;10.52;;;7.50;;
26036;SDS011;13810;48.376;10.944;2022-08-19T02:21:21;11.50;;;8.15;;
26036;SDS011;13810;48.376;10.944;2022-08-19T02:21:53;10.98;;;7.07;;
26036;SDS011;13810;48.376;10.944;2022-08-19T02:22:24;14.05;;;7.47;;
26036;SDS011;13810;48.376;10.944;2022-08-19T02:22:58;12.15;;;7.55;;
26036;SDS011;13810;48.376;10.944;2022-08-19T02:23:28;12.40;;;8.10;;
26036;SDS011;13810;48.376;10.944;2022-08-19T02:23:59;13.77;;;8.45;;
26036;SDS011;13810;48.376;10.944;2022-08-19T02:24:30;13.48;;;9.07;;
26036;SDS011;13810;48.376;10.944;2022-08-19T02:25:01;13.52;;;8.88;;
26036;SDS011;13810;48.376;10.944;2022-08-19T02:25:31;14.20;;;8.98;;
26036;SDS011;13810;48.376;10.944;2022-08-19T02:26:02;13.00;;;8.30;;
26036;SDS011;13810;48.376;10.944;2022-08-19T02:26:33;12.93;;;8.52;;
26036;SDS011;13810;48.376;10.944;2022-08-19T02:27:04;12.75;;;8.75;;
26036;SDS011;13810;48.376;10.944;2022-08-19T02:27:35;13.20;;;8.35;;
26036;SDS011;13810;48.376;10.944;2022-08-19T02:28:06;12.02;;;8.00;;
26036;SDS011;13810;48.376;10.944;2022-08-19T02:28:37;16.67;;;9.20;;
26036;SDS011;13810;48.376;10.944;2022-08-19T02:29:08;12.68;;;8.23;;
26036;SDS011;13810;48.376;10.944;2022-08-19T02:29:39;14.23;;;8.68;;
26036;SDS011;13810;48.376;10.944;2022-08-19T02:30:14;14.57;;;9.77;;
26036;SDS011;13810;48.376;10.944;2022-08-19T02:30:46;15.00;;;8.95;;
26036;SDS011;13810;48.376;10.944;2022-08-19T02:31:19;14.88;;;8.70;;
26036;SDS011;13810;48.376;10.944;2022-08-19T02:31:52;13.70;;;9.30;;
26036;SDS011;13810;48.376;10.944;2022-08-19T02:32:23;12.85;;;8.45;;
26036;SDS011;13810;48.376;10.944;2022-08-19T02:32:53;14.55;;;9.07;;
26036;SDS011;13810;48.376;10.944;2022-08-19T02:33:24;13.77;;;8.55;;
26036;SDS011;13810;48.376;10.944;2022-08-19T02:33:55;15.50;;;9.30;;
26036;SDS011;13810;48.376;10.944;2022-08-19T02:34:26;13.45;;;8.85;;
26036;SDS011;13810;48.376;10.944;2022-08-19T02:34:56;15.25;;;9.32;;
26036;SDS011;13810;48.376;10.944;2022-08-19T02:35:27;13.63;;;8.45;;
26036;SDS011;13810;48.376;10.944;2022-08-19T02:35:58;13.32;;;8.65;;
26036;SDS011;13810;48.376;10.944;2022-08-19T02:36:28;14.73;;;9.13;;
26036;SDS011;13810;48.376;10.944;2022-08-19T02:37:00;14.05;;;8.13;;
26036;SDS011;13810;48.376;10.944;2022-08-19T02:37:30;14.48;;;8.70;;
26036;SDS011;13810;48.376;10.944;2022-08-19T02:38:21;17.48;;;10.07;;
26036;SDS011;13810;48.376;10.944;2022-08-19T02:38:55;14.38;;;9.52;;
26036;SDS011;13810;48.376;10.944;2022-08-19T02:39:25;14.13;;;9.43;;
26036;SDS011;13810;48.376;10.944;2022-08-19T02:39:56;15.98;;;9.85;;
26036;SDS011;13810;48.376;10.944;2022-08-19T02:40:28;13.88;;;9.73;;
26036;SDS011;13810;48.376;10.944;2022-08-19T02:41:05;14.88;;;8.95;;
26036;SDS011;13810;48.376;10.944;2022-08-19T02:41:40;15.88;;;9.18;;
26036;SDS011;13810;48.376;10.944;2022-08-19T02:42:11;13.40;;;9.05;;
26036;SDS011;13810;48.376;10.944;2022-08-19T02:42:42;13.77;;;9.20;;
26036;SDS011;13810;48.376;10.944;2022-08-19T02:43:13;14.23;;;10.02;;
26036;SDS011;13810;48.376;10.944;2022-08-19T02:43:43;17.45;;;10.32;;
26036;SDS011;13810;48.376;10.944;2022-08-19T02:44:14;15.55;;;10.27;;
26036;SDS011;13810;48.376;10.944;2022-08-19T02:44:45;18.40;;;10.77;;
26036;SDS011;13810;48.376;10.944;2022-08-19T02:45:16;19.23;;;11.70;;
26036;SDS011;13810;48.376;10.944;2022-08-19T02:45:47;16.55;;;10.98;;
26036;SDS011;13810;48.376;10.944;2022-08-19T02:46:21;16.65;;;9.98;;
26036;SDS011;13810;48.376;10.944;2022-08-19T02:46:54;14.80;;;9.95;;
26036;SDS011;13810;48.376;10.944;2022-08-19T02:47:25;16.10;;;9.82;;
26036;SDS011;13810;48.376;10.944;2022-08-19T02:47:56;14.77;;;9.93;;
26036;SDS011;13810;48.376;10.944;2022-08-19T02:48:27;14.27;;;10.13;;
26036;SDS011;13810;48.376;10.944;2022-08-19T02:48:59;14.23;;;9.73;;
26036;SDS011;13810;48.376;10.944;2022-08-19T02:49:32;16.02;;;10.63;;
26036;SDS011;13810;48.376;10.944;2022-08-19T02:50:03;16.05;;;9.95;;
26036;SDS011;13810;48.376;10.944;2022-08-19T02:50:37;14.88;;;10.48;;
26036;SDS011;13810;48.376;10.944;2022-08-19T02:51:08;13.27;;;9.50;;
26036;SDS011;13810;48.376;10.944;2022-08-19T02:51:46;19.48;;;10.38;;
26036;SDS011;13810;48.376;10.944;2022-08-19T02:52:17;18.35;;;10.30;;
26036;SDS011;13810;48.376;10.944;2022-08-19T02:52:48;14.88;;;10.05;;
26036;SDS011;13810;48.376;10.944;2022-08-19T02:53:18;17.23;;;10.82;;
26036;SDS011;13810;48.376;10.944;2022-08-19T02:53:49;15.55;;;10.05;;
26036;SDS011;13810;48.376;10.944;2022-08-19T02:54:20;16.35;;;10.52;;
26036;SDS011;13810;48.376;10.944;2022-08-19T02:54:51;16.50;;;10.50;;
26036;SDS011;13810;48.376;10.944;2022-08-19T02:55:21;15.85;;;9.68;;
26036;SDS011;13810;48.376;10.944;2022-08-19T02:55:52;18.75;;;11.13;;
26036;SDS011;13810;48.376;10.944;2022-08-19T02:56:23;15.85;;;10.73;;
26036;SDS011;13810;48.376;10.944;2022-08-19T02:56:57;18.60;;;11.18;;
26036;SDS011;13810;48.376;10.944;2022-08-19T02:57:29;14.30;;;9.20;;
26036;SDS011;13810;48.376;10.944;2022-08-19T02:58:01;16.42;;;10.95;;
26036;SDS011;13810;48.376;10.944;2022-08-19T02:58:32;14.57;;;9.88;;
26036;SDS011;13810;48.376;10.944;2022-08-19T02:59:03;18.38;;;11.48;;
26036;SDS011;13810;48.376;10.944;2022-08-19T02:59:38;16.73;;;11.20;;
26036;SDS011;13810;48.376;10.944;2022-08-19T03:00:09;19.05;;;11.35;;
26036;SDS011;13810;48.376;10.944;2022-08-19T03:00:44;15.45;;;10.88;;
26036;SDS011;13810;48.376;10.944;2022-08-19T03:01:24;16.38;;;10.88;;
26036;SDS011;13810;48.376;10.944;2022-08-19T03:01:57;17.25;;;11.75;;
26036;SDS011;13810;48.376;10.944;2022-08-19T03:02:28;16.50;;;11.55;;
26036;SDS011;13810;48.376;10.944;2022-08-19T03:03:00;19.27;;;12.48;;
26036;SDS011;13810;48.376;10.944;2022-08-19T03:03:31;20.23;;;11.80;;
26036;SDS011;13810;48.376;10.944;2022-08-19T03:04:03;19.30;;;11.38;;
26036;SDS011;13810;48.376;10.944;2022-08-19T03:04:36;17.85;;;11.55;;
26036;SDS011;13810;48.376;10.944;2022-08-19T03:05:08;16.92;;;10.95;;
26036;SDS011;13810;48.376;10.944;2022-08-19T03:05:39;19.63;;;11.85;;
26036;SDS011;13810;48.376;10.944;2022-08-19T03:06:12;22.88;;;12.35;;
26036;SDS011;13810;48.376;10.944;2022-08-19T03:06:45;18.80;;;11.95;;
26036;SDS011;13810;48.376;10.944;2022-08-19T03:07:17;18.38;;;12.20;;
26036;SDS011;13810;48.376;10.944;2022-08-19T03:07:48;19.33;;;12.48;;
26036;SDS011;13810;48.376;10.944;2022-08-19T03:08:19;21.20;;;13.90;;
26036;SDS011;13810;48.376;10.944;2022-08-19T03:08:49;19.83;;;12.88;;
26036;SDS011;13810;48.376;10.944;2022-08-19T03:09:20;21.52;;;13.75;;
26036;SDS011;13810;48.376;10.944;2022-08-19T03:09:51;20.38;;;13.80;;
26036;SDS011;13810;48.376;10.944;2022-08-19T03:10:22;21.83;;;13.52;;